Time;durP1;ratioP1;P1;durP2;ratioP2;P2;SDS_P1;SDS_P2;PMS_P1;PMS_P2;Temp;Humidity;BMP_temperature;BMP_pressure;BME280_temperature;BME280_humidity;BME280_pressure;Samples;Min_cycle;Max_cycle;Signal;HPM_P1;HPM_P2
2022/05/29 00:00:15;;;;;;;6.97;2.22;;;10.90;99.90;;;;;;4895031;29;20056;-75
2022/05/29 00:02:41;;;;;;;10.82;2.30;;;10.90;99.90;;;;;;4894222;29;20040;-76
2022/05/29 00:05:09;;;;;;;6.65;2.08;;;11.00;99.90;;;;;;4905260;29;20509;-77
2022/05/29 00:07:35;;;;;;;8.70;2.38;;;11.00;99.90;;;;;;4894866;29;20569;-76
2022/05/29 00:10:07;;;;;;;7.18;2.05;;;11.00;99.90;;;;;;4889915;29;20512;-76
2022/05/29 00:12:33;;;;;;;7.35;2.00;;;11.00;99.90;;;;;;4909696;29;20070;-75
2022/05/29 00:14:58;;;;;;;7.07;2.53;;;11.00;99.90;;;;;;4920806;29;20646;-76
2022/05/29 00:17:24;;;;;;;6.65;1.80;;;11.00;99.90;;;;;;4887347;29;20044;-76
2022/05/29 00:19:50;;;;;;;7.22;2.00;;;11.00;99.90;;;;;;4923559;29;20137;-77
2022/05/29 00:22:19;;;;;;;5.53;1.80;;;11.00;99.90;;;;;;4904706;29;20047;-77
2022/05/29 00:24:46;;;;;;;7.18;2.25;;;11.00;99.90;;;;;;4894255;29;20055;-76
2022/05/29 00:27:12;;;;;;;6.50;1.88;;;11.00;99.90;;;;;;4908913;29;20127;-77
2022/05/29 00:29:39;;;;;;;6.55;1.77;;;11.00;99.90;;;;;;4905141;29;20139;-77
2022/05/29 00:32:06;;;;;;;10.18;1.88;;;11.00;99.90;;;;;;4905035;29;20050;-77
2022/05/29 00:34:32;;;;;;;10.23;2.63;;;11.00;99.90;;;;;;4919016;29;20047;-76
2022/05/29 00:36:59;;;;;;;6.15;1.92;;;11.00;99.90;;;;;;4886646;29;20060;-77
2022/05/29 00:39:26;;;;;;;8.65;2.15;;;10.90;99.90;;;;;;4903247;29;20571;-78
2022/05/29 00:41:52;;;;;;;6.80;1.90;;;10.90;99.90;;;;;;4894565;29;20367;-77
2022/05/29 00:44:23;;;;;;;12.52;2.42;;;10.90;99.90;;;;;;4902288;29;20059;-77
2022/05/29 00:46:54;;;;;;;8.63;2.22;;;10.90;99.90;;;;;;4918438;29;20809;-76
2022/05/29 00:49:23;;;;;;;10.52;2.80;;;10.90;99.90;;;;;;4887796;29;20107;-77
2022/05/29 00:52:06;;;;;;;6.78;2.38;;;10.80;99.90;;;;;;4903412;29;20395;-76
2022/05/29 00:54:49;;;;;;;7.50;1.77;;;10.80;99.90;;;;;;4917006;29;20060;-77
2022/05/29 00:57:18;;;;;;;5.38;1.80;;;10.80;99.90;;;;;;4920946;29;20119;-77
2022/05/29 00:59:46;;;;;;;6.65;1.92;;;10.80;99.90;;;;;;4918192;29;20060;-77
2022/05/29 01:02:12;;;;;;;7.25;1.88;;;10.70;99.90;;;;;;4909208;29;20037;-78
2022/05/29 01:04:39;;;;;;;10.45;2.50;;;10.70;99.90;;;;;;4906766;29;20068;-78
2022/05/29 01:07:08;;;;;;;6.78;2.50;;;10.70;99.90;;;;;;4904115;29;20051;-77
2022/05/29 01:09:36;;;;;;;7.93;2.13;;;10.70;99.90;;;;;;4908736;29;20047;-77
2022/05/29 01:12:04;;;;;;;7.47;2.05;;;10.70;99.90;;;;;;4906391;29;20059;-77
2022/05/29 01:14:48;;;;;;;7.82;2.28;;;10.70;99.90;;;;;;4906866;29;20154;-77
2022/05/29 01:17:38;;;;;;;9.23;2.63;;;10.70;99.90;;;;;;4905879;29;20118;-77
2022/05/29 01:20:27;;;;;;;7.85;2.28;;;10.70;99.90;;;;;;4912816;29;20079;-77
2022/05/29 01:23:02;;;;;;;9.90;2.50;;;10.70;99.90;;;;;;4898769;29;20044;-77
2022/05/29 01:25:28;;;;;;;6.93;1.98;;;10.70;99.90;;;;;;4914592;29;20091;-77
2022/05/29 01:28:30;;;;;;;9.93;2.97;;;10.70;99.90;;;;;;4914422;29;20080;-77
2022/05/29 01:31:09;;;;;;;7.93;2.60;;;10.80;99.90;;;;;;4924842;29;20407;-77
2022/05/29 01:34:11;;;;;;;7.60;2.40;;;10.80;99.90;;;;;;4922442;29;20648;-77
2022/05/29 01:36:58;;;;;;;7.72;2.22;;;10.90;99.90;;;;;;4919475;29;20060;-77
2022/05/29 01:39:46;;;;;;;6.05;2.55;;;10.90;99.90;;;;;;4904085;29;20111;-77
2022/05/29 01:42:22;;;;;;;7.90;2.38;;;10.90;99.90;;;;;;4912028;29;20047;-77
2022/05/29 01:45:04;;;;;;;7.65;2.60;;;10.90;99.90;;;;;;4908983;29;20055;-78
2022/05/29 01:47:43;;;;;;;10.50;2.75;;;10.90;99.90;;;;;;4909886;29;20058;-77
2022/05/29 01:50:20;;;;;;;9.38;2.50;;;10.90;99.90;;;;;;4923329;29;20064;-77
2022/05/29 01:53:01;;;;;;;11.07;2.80;;;10.90;99.90;;;;;;4912423;29;20056;-77
2022/05/29 01:55:38;;;;;;;8.45;2.60;;;10.90;99.90;;;;;;4923926;29;20040;-77
2022/05/29 01:58:12;;;;;;;7.88;1.95;;;10.90;99.90;;;;;;4891946;29;20086;-76
2022/05/29 02:00:38;;;;;;;6.22;2.20;;;10.90;99.90;;;;;;4889806;29;20569;-77
2022/05/29 02:03:27;;;;;;;7.15;2.33;;;10.90;99.90;;;;;;4880883;29;20052;-77
2022/05/29 02:06:00;;;;;;;8.57;2.78;;;10.90;99.90;;;;;;4913678;29;20056;-77
2022/05/29 02:08:36;;;;;;;10.10;2.20;;;10.90;99.90;;;;;;4897256;29;20513;-76
2022/05/29 02:11:19;;;;;;;9.23;2.22;;;10.80;99.90;;;;;;4911155;29;20054;-76
2022/05/29 02:13:57;;;;;;;7.50;1.98;;;10.80;99.90;;;;;;4906324;29;20059;-77
2022/05/29 02:16:44;;;;;;;4.95;1.98;;;10.80;99.90;;;;;;4897441;29;20379;-77
2022/05/29 02:19:24;;;;;;;8.80;2.35;;;10.80;99.90;;;;;;4890926;29;20191;-78
2022/05/29 02:22:18;;;;;;;8.75;2.60;;;10.80;99.90;;;;;;4909438;29;20123;-78
2022/05/29 02:24:50;;;;;;;8.77;2.40;;;10.80;99.90;;;;;;4912305;29;20044;-77
2022/05/29 02:27:50;;;;;;;9.02;2.58;;;10.80;99.90;;;;;;4911278;29;20107;-77
2022/05/29 02:30:16;;;;;;;10.80;2.53;;;10.80;99.90;;;;;;4913028;29;20063;-77
2022/05/29 02:33:09;;;;;;;8.68;2.53;;;10.90;99.90;;;;;;4896551;29;20048;-77
2022/05/29 02:35:44;;;;;;;11.45;2.05;;;10.90;99.90;;;;;;4912251;29;20063;-76
2022/05/29 02:38:19;;;;;;;8.25;2.30;;;10.90;99.90;;;;;;4911980;29;20048;-77
2022/05/29 02:40:56;;;;;;;9.10;2.38;;;10.90;99.90;;;;;;4912240;29;20051;-77
2022/05/29 02:43:53;;;;;;;10.05;2.40;;;10.90;99.90;;;;;;4905593;29;20517;-77
2022/05/29 02:46:22;;;;;;;;;;;11.00;99.90;;;;;;4907724;29;20071;-78
2022/05/29 02:48:55;;;;;;;8.00;2.85;;;10.90;99.90;;;;;;4924140;29;19931;-77
2022/05/29 02:51:50;;;;;;;10.68;2.75;;;11.00;99.90;;;;;;4889431;29;20112;-78
2022/05/29 02:54:25;;;;;;;8.18;2.33;;;11.00;99.90;;;;;;4906274;29;20051;-76
2022/05/29 02:56:56;;;;;;;8.18;2.80;;;11.00;99.90;;;;;;4889999;29;20060;-78
2022/05/29 02:59:29;;;;;;;7.00;2.17;;;11.00;99.90;;;;;;4911569;29;20080;-79
2022/05/29 03:02:31;;;;;;;11.63;2.50;;;11.00;99.90;;;;;;4911731;29;20044;-77
2022/05/29 03:04:59;;;;;;;7.47;2.30;;;11.00;99.90;;;;;;4891819;29;20051;-77
2022/05/29 03:07:46;;;;;;;8.52;2.20;;;11.00;99.90;;;;;;4923769;29;20127;-76
2022/05/29 03:10:45;;;;;;;11.65;2.67;;;11.00;99.90;;;;;;4905699;29;20056;-77
2022/05/29 03:13:13;;;;;;;8.82;2.55;;;11.10;99.90;;;;;;4891160;29;20052;-76
2022/05/29 03:15:48;;;;;;;11.07;2.90;;;11.10;99.90;;;;;;4905657;29;20052;-77
2022/05/29 03:18:34;;;;;;;11.43;2.55;;;11.10;99.90;;;;;;4910902;29;20051;-77
2022/05/29 03:21:37;;;;;;;10.60;2.90;;;11.10;99.90;;;;;;4905861;29;20048;-79
2022/05/29 03:24:19;;;;;;;8.73;2.10;;;11.10;99.90;;;;;;4912389;29;20090;-76
2022/05/29 03:27:07;;;;;;;7.82;2.20;;;11.10;99.90;;;;;;4920366;29;20451;-77
2022/05/29 03:29:37;;;;;;;7.55;1.77;;;11.20;99.90;;;;;;4908490;29;20059;-77
2022/05/29 03:32:05;;;;;;;5.80;2.15;;;11.10;99.90;;;;;;4888583;29;20051;-77
2022/05/29 03:34:31;;;;;;;5.25;1.67;;;11.20;99.90;;;;;;4910473;29;20055;-76
2022/05/29 03:36:56;;;;;;;9.15;2.08;;;11.10;99.90;;;;;;4905082;29;20051;-78
2022/05/29 03:39:22;;;;;;;7.45;2.17;;;11.10;99.90;;;;;;4892208;29;20200;-78
2022/05/29 03:41:51;;;;;;;4.03;1.40;;;11.10;99.90;;;;;;4904737;29;20048;-77
2022/05/29 03:44:20;;;;;;;5.88;1.52;;;11.10;99.90;;;;;;4889007;29;20119;-77
2022/05/29 03:46:46;;;;;;;5.88;1.70;;;11.00;99.90;;;;;;4904004;29;20059;-77
2022/05/29 03:49:14;;;;;;;7.25;1.83;;;11.00;99.90;;;;;;4875222;29;20060;-77
2022/05/29 03:51:40;;;;;;;6.28;2.00;;;11.00;99.90;;;;;;4903401;29;20048;-77
2022/05/29 03:54:06;;;;;;;7.00;1.80;;;11.00;99.90;;;;;;4907175;29;20071;-78
2022/05/29 03:56:32;;;;;;;11.07;2.22;;;11.00;99.90;;;;;;4872388;29;20052;-77
2022/05/29 03:58:58;;;;;;;9.77;2.28;;;11.10;99.90;;;;;;4908658;29;20408;-77
2022/05/29 04:01:24;;;;;;;8.60;2.38;;;11.10;99.90;;;;;;4921502;29;20048;-77
2022/05/29 04:03:53;;;;;;;9.30;2.28;;;11.10;99.90;;;;;;4903292;29;20079;-78
2022/05/29 04:06:24;;;;;;;10.93;2.40;;;11.10;99.90;;;;;;4880171;29;20132;-76
2022/05/29 04:12:21;;;;;;;8.18;2.22;;;11.20;99.90;;;;;;4878855;29;20059;-77
2022/05/29 04:14:26;;;;;;;9.10;2.10;;;11.20;99.90;;;;;;4908500;29;20124;-78
2022/05/29 04:16:52;;;;;;;7.90;2.22;;;11.10;99.90;;;;;;4909891;29;20150;-76
2022/05/29 04:19:19;;;;;;;8.82;2.45;;;11.10;99.90;;;;;;4910533;29;20134;-77
2022/05/29 04:21:46;;;;;;;8.23;2.40;;;11.10;99.90;;;;;;4903925;29;20080;-78
2022/05/29 04:24:12;;;;;;;9.38;2.33;;;11.10;99.90;;;;;;4906717;29;20045;-77
2022/05/29 04:26:38;;;;;;;6.03;1.92;;;11.10;99.90;;;;;;4905335;29;20049;-77
2022/05/29 04:29:05;;;;;;;6.38;1.52;;;11.10;99.90;;;;;;4904641;29;20059;-78
2022/05/29 04:31:32;;;;;;;5.80;1.50;;;11.10;99.90;;;;;;4905190;29;20056;-78
2022/05/29 04:33:58;;;;;;;5.10;1.50;;;11.20;99.90;;;;;;4878340;29;20044;-77
2022/05/29 04:36:24;;;;;;;8.20;1.98;;;11.10;99.90;;;;;;4911374;29;20076;-77
2022/05/29 04:38:51;;;;;;;6.03;1.92;;;11.20;99.90;;;;;;4910003;29;20087;-79
2022/05/29 04:41:19;;;;;;;7.15;1.55;;;11.20;99.90;;;;;;4904615;29;20543;-77
2022/05/29 04:43:45;;;;;;;5.38;1.52;;;11.30;99.90;;;;;;4903373;29;20052;-77
2022/05/29 04:46:12;;;;;;;11.60;2.58;;;11.30;99.90;;;;;;4876412;29;20134;-77
2022/05/29 04:48:37;;;;;;;9.50;2.10;;;11.30;99.90;;;;;;4898993;29;20485;-77
2022/05/29 04:51:06;;;;;;;9.50;2.50;;;11.40;99.90;;;;;;4898919;29;20052;-77
2022/05/29 04:53:32;;;;;;;8.32;2.17;;;11.40;99.90;;;;;;4923158;29;20076;-80
2022/05/29 04:55:58;;;;;;;9.18;3.15;;;11.40;99.90;;;;;;4913710;29;20080;-77
2022/05/29 04:58:26;;;;;;;6.60;1.88;;;11.70;99.90;;;;;;4927050;29;20054;-77
2022/05/29 05:01:01;;;;;;;5.35;1.48;;;11.40;99.90;;;;;;4913280;29;20052;-77
2022/05/29 05:03:28;;;;;;;5.85;1.83;;;11.30;99.90;;;;;;4925590;29;20417;-77
2022/05/29 05:05:53;;;;;;;4.80;2.10;;;11.30;99.90;;;;;;4881880;29;20060;-77
2022/05/29 05:08:19;;;;;;;6.50;1.77;;;11.30;99.90;;;;;;4875042;29;20420;-76
2022/05/29 05:10:45;;;;;;;5.05;1.35;;;11.40;99.90;;;;;;4874862;29;20048;-77
2022/05/29 05:13:11;;;;;;;6.40;1.65;;;11.30;99.90;;;;;;4908364;29;20043;-78
2022/05/29 05:15:37;;;;;;;6.25;1.40;;;11.40;99.90;;;;;;4896832;29;20051;-77
2022/05/29 05:18:03;;;;;;;7.38;1.42;;;11.30;99.90;;;;;;4907943;29;20066;-77
2022/05/29 05:20:30;;;;;;;4.40;1.50;;;11.30;99.90;;;;;;4912858;29;20078;-77
2022/05/29 05:22:57;;;;;;;6.05;1.65;;;11.40;99.90;;;;;;4911312;29;22209;-78
2022/05/29 05:25:23;;;;;;;5.90;2.00;;;11.40;99.90;;;;;;4909644;29;20048;-78
2022/05/29 05:27:49;;;;;;;13.20;2.05;;;11.40;99.90;;;;;;4907624;29;20062;-78
2022/05/29 05:30:14;;;;;;;10.23;1.65;;;11.40;99.90;;;;;;4893481;29;20048;-77
2022/05/29 05:32:40;;;;;;;7.70;2.03;;;11.40;99.90;;;;;;4912343;29;20058;-76
2022/05/29 05:35:07;;;;;;;8.65;1.70;;;11.50;99.90;;;;;;4891284;29;20565;-77
2022/05/29 05:37:35;;;;;;;10.82;1.88;;;11.50;99.90;;;;;;4909082;29;20143;-77
2022/05/29 05:40:04;;;;;;;8.05;1.65;;;11.50;99.90;;;;;;4909734;29;20076;-76
2022/05/29 05:42:30;;;;;;;8.80;1.80;;;11.50;99.90;;;;;;4906824;29;20044;-77
2022/05/29 05:44:56;;;;;;;6.25;1.83;;;11.50;99.90;;;;;;4897246;29;20396;-78
2022/05/29 05:47:22;;;;;;;7.07;1.67;;;11.50;99.90;;;;;;4892165;29;20472;-77
2022/05/29 05:49:49;;;;;;;9.77;1.88;;;11.50;99.90;;;;;;4907472;29;20097;-77
2022/05/29 05:52:16;;;;;;;7.72;1.90;;;11.50;99.90;;;;;;4913267;29;20087;-77
2022/05/29 05:54:42;;;;;;;6.93;1.60;;;11.50;99.90;;;;;;4913161;29;20076;-76
2022/05/29 05:57:07;;;;;;;8.02;1.70;;;11.50;99.90;;;;;;4897788;29;20048;-76
2022/05/29 05:59:38;;;;;;;6.20;1.33;;;11.50;99.90;;;;;;4923964;29;20411;-78
2022/05/29 06:02:09;;;;;;;7.82;1.30;;;11.60;99.90;;;;;;4890327;29;20052;-77
2022/05/29 06:04:39;;;;;;;4.47;1.40;;;11.60;99.90;;;;;;4912163;29;20059;-77
2022/05/29 06:07:06;;;;;;;5.10;1.52;;;11.70;99.90;;;;;;4906661;29;20048;-77
2022/05/29 06:09:33;;;;;;;7.50;1.67;;;11.70;99.90;;;;;;4891662;29;20475;-77
2022/05/29 06:11:59;;;;;;;6.05;1.60;;;11.80;99.90;;;;;;4910868;29;20154;-77
2022/05/29 06:14:24;;;;;;;6.68;1.92;;;11.90;99.90;;;;;;4921945;29;20092;-77
2022/05/29 06:16:50;;;;;;;6.07;1.60;;;11.90;99.90;;;;;;4911214;29;20052;-77
2022/05/29 06:19:16;;;;;;;5.07;1.77;;;12.00;99.90;;;;;;4912178;29;20083;-78
2022/05/29 06:21:42;;;;;;;3.80;1.77;;;12.00;99.90;;;;;;4903853;29;20044;-78
2022/05/29 06:24:07;;;;;;;6.13;1.70;;;11.90;99.90;;;;;;4873128;29;20126;-78
2022/05/29 06:26:33;;;;;;;5.32;1.63;;;11.90;99.90;;;;;;4906250;29;20063;-77
2022/05/29 06:28:59;;;;;;;4.85;1.50;;;11.90;99.90;;;;;;4904373;29;20052;-78
2022/05/29 06:31:25;;;;;;;5.68;1.67;;;11.80;99.90;;;;;;4874113;29;20047;-77
2022/05/29 06:33:51;;;;;;;6.90;1.70;;;11.90;99.90;;;;;;4920427;29;20394;-77
2022/05/29 06:36:23;;;;;;;8.15;1.67;;;12.00;99.90;;;;;;4904483;29;20056;-77
2022/05/29 06:38:50;;;;;;;4.15;1.40;;;12.00;99.90;;;;;;4902193;29;20060;-77
2022/05/29 06:41:20;;;;;;;10.40;2.15;;;12.00;99.90;;;;;;4887065;29;20048;-77
2022/05/29 06:43:46;;;;;;;8.45;1.70;;;12.00;99.90;;;;;;4903608;29;20059;-77
2022/05/29 06:46:12;;;;;;;6.28;1.92;;;12.00;99.90;;;;;;4903146;29;20055;-77
2022/05/29 06:48:40;;;;;;;6.07;1.90;;;12.00;99.90;;;;;;4918752;29;20529;-77
2022/05/29 06:51:15;;;;;;;7.35;1.83;;;12.10;99.90;;;;;;4918999;29;20183;-77
2022/05/29 06:53:42;;;;;;;10.07;2.15;;;12.00;99.90;;;;;;4888447;29;20047;-78
2022/05/29 06:56:09;;;;;;;6.88;1.90;;;11.90;99.90;;;;;;4874309;29;20049;-76
2022/05/29 06:58:35;;;;;;;7.63;2.00;;;11.90;99.90;;;;;;4889439;29;20470;-77
2022/05/29 07:09:23;;;;;;;9.15;1.90;;;11.70;99.90;;;;;;4911056;29;20135;-79
2022/05/29 07:11:52;;;;;;;9.60;2.22;;;11.70;99.90;;;;;;4919531;29;20143;-77
2022/05/29 07:14:19;;;;;;;6.88;1.73;;;11.70;99.90;;;;;;4890391;29;20051;-77
2022/05/29 07:16:45;;;;;;;7.93;1.52;;;11.70;99.90;;;;;;4920966;29;20052;-77
2022/05/29 07:19:13;;;;;;;8.00;2.30;;;11.70;99.90;;;;;;4901946;29;20099;-78
2022/05/29 07:21:40;;;;;;;6.32;1.52;;;11.70;99.90;;;;;;4888013;29;20084;-77
2022/05/29 07:24:07;;;;;;;9.60;1.80;;;11.70;99.90;;;;;;4893880;29;20056;-78
2022/05/29 07:26:34;;;;;;;6.97;1.90;;;11.80;99.90;;;;;;4911100;29;20084;-77
2022/05/29 07:29:00;;;;;;;8.43;1.70;;;11.80;99.90;;;;;;4904082;29;20060;-76
2022/05/29 07:31:26;;;;;;;6.47;1.55;;;11.80;99.90;;;;;;4908129;29;20056;-76
2022/05/29 07:33:52;;;;;;;6.75;1.70;;;11.80;99.90;;;;;;4892736;29;20055;-76
2022/05/29 07:36:19;;;;;;;5.75;1.48;;;11.80;99.90;;;;;;4910693;29;20123;-77
2022/05/29 07:38:45;;;;;;;5.72;1.40;;;11.80;99.90;;;;;;4905873;29;20052;-77
2022/05/29 07:43:56;;;;;;;7.20;1.45;;;12.00;99.90;;;;;;4905492;29;20060;-77
2022/05/29 07:46:22;;;;;;;6.00;1.58;;;12.20;99.90;;;;;;4911190;29;20051;-77
2022/05/29 07:48:48;;;;;;;5.72;1.40;;;12.20;99.90;;;;;;4903988;29;20059;-78
2022/05/29 07:51:14;;;;;;;4.72;1.92;;;12.30;99.90;;;;;;4909263;29;20071;-77
2022/05/29 07:53:40;;;;;;;6.95;1.48;;;12.50;99.90;;;;;;4894527;29;20537;-76
2022/05/29 07:56:07;;;;;;;5.43;1.38;;;12.70;99.90;;;;;;4904684;29;20048;-76
2022/05/29 07:58:33;;;;;;;5.57;1.30;;;12.90;99.90;;;;;;4902595;29;20051;-77
2022/05/29 08:00:59;;;;;;;3.28;1.30;;;13.10;99.90;;;;;;4905075;29;20455;-77
2022/05/29 08:03:25;;;;;;;5.72;1.65;;;13.20;99.90;;;;;;4905841;29;20051;-76
2022/05/29 08:05:51;;;;;;;3.83;1.15;;;13.40;99.90;;;;;;4883752;29;20076;-77
2022/05/29 08:08:18;;;;;;;8.82;1.40;;;12.50;99.90;;;;;;4907179;29;20053;-76
2022/05/29 08:10:44;;;;;;;3.72;1.30;;;13.50;99.90;;;;;;4904638;29;20178;-77
2022/05/29 08:13:11;;;;;;;5.47;2.03;;;13.60;99.90;;;;;;4910665;29;20482;-77
2022/05/29 08:15:37;;;;;;;8.43;1.40;;;13.70;99.90;;;;;;4920151;29;20502;-76
2022/05/29 08:18:04;;;;;;;5.18;1.67;;;13.80;99.90;;;;;;4902718;29;20746;-77
2022/05/29 08:20:30;;;;;;;3.25;1.27;;;14.00;99.90;;;;;;4909800;29;20058;-77
2022/05/29 08:22:56;;;;;;;4.60;1.42;;;14.10;99.90;;;;;;4893882;29;20060;-78
2022/05/29 08:30:53;;;;;;;3.95;1.20;;;13.90;99.90;;;;;;4909802;29;20068;-79
2022/05/29 08:33:20;;;;;;;4.45;1.20;;;13.90;99.90;;;;;;4909546;29;20057;-77
2022/05/29 08:35:48;;;;;;;6.22;1.60;;;13.90;99.90;;;;;;4910228;29;20056;-77
2022/05/29 08:38:16;;;;;;;3.00;1.23;;;13.90;99.90;;;;;;4885136;29;20099;-77
2022/05/29 08:40:51;;;;;;;8.48;1.73;;;13.80;99.90;;;;;;4909139;29;20126;-78
2022/05/29 08:43:40;;;;;;;4.85;1.40;;;13.60;99.90;;;;;;4888335;29;20052;-78
2022/05/29 08:46:18;;;;;;;3.88;1.13;;;13.40;99.90;;;;;;4909483;29;20050;-78
2022/05/29 08:48:45;;;;;;;1.95;0.80;;;13.20;99.90;;;;;;4887804;29;20133;-78
2022/05/29 08:51:21;;;;;;;4.60;1.10;;;13.10;99.90;;;;;;4908999;29;20576;-80
2022/05/29 08:54:11;;;;;;;4.07;1.27;;;13.10;99.90;;;;;;4892844;29;20056;-76
2022/05/29 08:56:57;;;;;;;5.10;1.40;;;13.00;99.90;;;;;;4921304;29;20080;-77
2022/05/29 08:59:48;;;;;;;3.58;1.10;;;13.00;99.90;;;;;;4902260;29;20048;-77
2022/05/29 09:02:30;;;;;;;4.05;1.20;;;13.00;99.90;;;;;;4909420;29;20044;-75
2022/05/29 09:05:06;;;;;;;5.43;1.55;;;13.00;99.90;;;;;;4909110;29;20056;-76
2022/05/29 09:07:35;;;;;;;5.55;1.65;;;13.10;99.90;;;;;;4919681;29;20478;-74
2022/05/29 09:10:15;;;;;;;4.70;1.80;;;12.90;99.90;;;;;;4887202;29;20048;-75
2022/05/29 09:12:52;;;;;;;4.45;1.50;;;12.80;99.90;;;;;;4909395;29;20151;-76
2022/05/29 09:15:33;;;;;;;5.15;1.38;;;12.70;99.90;;;;;;4912568;29;20044;-75
2022/05/29 09:18:06;;;;;;;3.25;1.20;;;12.70;99.90;;;;;;4908503;29;20048;-76
2022/05/29 09:20:36;;;;;;;5.45;1.27;;;12.70;99.90;;;;;;4887344;29;20056;-76
2022/05/29 09:23:05;;;;;;;6.22;1.75;;;12.80;99.90;;;;;;4886740;29;20108;-76
2022/05/29 09:25:33;;;;;;;6.55;1.20;;;12.80;99.90;;;;;;4908857;29;20115;-76
2022/05/29 09:28:02;;;;;;;3.58;1.20;;;12.90;99.90;;;;;;4917042;29;20055;-75
2022/05/29 09:30:29;;;;;;;5.47;1.10;;;12.90;99.90;;;;;;4918025;29;20052;-76
2022/05/29 09:33:02;;;;;;;4.57;1.60;;;13.00;99.90;;;;;;4904597;29;20111;-76
2022/05/29 09:36:07;;;;;;;5.72;1.52;;;13.00;99.90;;;;;;4906165;29;20405;-76
2022/05/29 09:38:35;;;;;;;5.60;1.38;;;12.90;99.90;;;;;;4912099;29;20063;-76
2022/05/29 09:41:19;;;;;;;7.25;2.15;;;12.90;99.90;;;;;;4905304;29;20131;-76
2022/05/29 09:44:04;;;;;;;5.78;1.35;;;12.80;99.90;;;;;;4912431;29;20057;-76
2022/05/29 09:46:33;;;;;;;6.32;1.95;;;12.60;99.90;;;;;;4911483;29;20187;-77
2022/05/29 09:51:57;;;;;;;5.03;1.10;;;12.50;99.90;;;;;;4910968;29;20074;-77
2022/05/29 09:54:29;;;;;;;4.85;1.30;;;12.40;99.90;;;;;;4905948;29;20104;-75
2022/05/29 09:57:05;;;;;;;9.85;1.52;;;12.50;99.90;;;;;;4921659;29;20181;-75
2022/05/29 09:59:37;;;;;;;3.50;1.10;;;12.50;99.90;;;;;;4910596;29;20075;-76
2022/05/29 10:02:04;;;;;;;5.90;1.15;;;12.60;99.90;;;;;;4904092;29;20062;-76
2022/05/29 10:04:39;;;;;;;4.10;1.10;;;12.70;99.90;;;;;;4896435;29;20060;-77
2022/05/29 10:07:34;;;;;;;6.55;1.40;;;12.80;99.90;;;;;;4904270;29;20052;-76
2022/05/29 10:10:01;;;;;;;7.03;1.38;;;12.90;99.90;;;;;;4895554;29;20583;-78
2022/05/29 10:12:48;;;;;;;6.40;1.83;;;12.90;99.90;;;;;;4921930;29;20133;-76
2022/05/29 10:15:25;;;;;;;5.70;1.23;;;13.00;99.90;;;;;;4904111;29;20060;-76
2022/05/29 10:17:58;;;;;;;4.65;1.63;;;13.00;99.90;;;;;;4905387;29;20048;-76
2022/05/29 10:20:32;;;;;;;5.30;1.30;;;13.10;99.90;;;;;;4904115;29;20048;-76
2022/05/29 10:23:02;;;;;;;4.50;1.13;;;13.20;99.90;;;;;;4910854;29;20048;-76
2022/05/29 10:25:35;;;;;;;4.85;1.20;;;13.30;99.90;;;;;;4910306;29;20568;-76
2022/05/29 10:28:09;;;;;;;5.40;1.30;;;13.40;99.90;;;;;;4889924;29;20044;-77
2022/05/29 10:30:54;;;;;;;4.13;1.20;;;13.50;99.90;;;;;;4920575;29;20048;-75
2022/05/29 10:33:23;;;;;;;3.75;1.25;;;13.60;99.90;;;;;;4910836;29;20049;-76
2022/05/29 10:35:53;;;;;;;5.63;1.25;;;13.50;99.90;;;;;;4920201;29;20087;-76
2022/05/29 10:38:25;;;;;;;9.05;1.40;;;13.40;99.90;;;;;;4910915;29;20063;-76
2022/05/29 10:40:54;;;;;;;2.97;1.02;;;13.30;99.90;;;;;;4918861;29;20103;-76
2022/05/29 10:43:47;;;;;;;4.75;1.10;;;13.30;99.90;;;;;;4903428;29;20095;-76
2022/05/29 10:46:25;;;;;;;4.03;1.00;;;13.20;99.90;;;;;;4909874;29;20126;-76
2022/05/29 10:48:54;;;;;;;4.15;1.00;;;13.20;99.90;;;;;;4911012;29;20060;-76
2022/05/29 10:51:27;;;;;;;3.05;1.08;;;13.30;99.90;;;;;;4918419;29;20063;-77
2022/05/29 10:54:14;;;;;;;4.18;1.17;;;13.40;99.90;;;;;;4904100;29;20052;-76
2022/05/29 10:56:58;;;;;;;5.32;1.10;;;13.60;99.90;;;;;;4910313;29;20040;-76
2022/05/29 10:59:44;;;;;;;5.32;1.15;;;13.80;99.90;;;;;;4910368;29;20055;-76
2022/05/29 11:06:09;;;;;;;4.18;1.20;;;14.40;99.90;;;;;;4913333;29;20056;-77
2022/05/29 11:08:50;;;;;;;5.38;1.33;;;14.80;99.90;;;;;;4906043;29;20056;-77
2022/05/29 11:11:29;;;;;;;6.35;1.50;;;15.10;99.90;;;;;;4889995;29;20080;-77
2022/05/29 11:14:38;;;;;;;4.55;1.08;;;15.30;99.90;;;;;;4921880;29;20056;-77
2022/05/29 11:17:07;;;;;;;5.80;1.25;;;15.30;99.90;;;;;;4904628;29;20098;-78
2022/05/29 11:19:55;;;;;;;6.88;1.40;;;15.10;99.90;;;;;;4919172;29;20058;-78
2022/05/29 11:22:58;;;;;;;4.53;1.42;;;15.10;99.90;;;;;;4909729;29;20051;-78
2022/05/29 11:25:43;;;;;;;5.35;1.50;;;15.00;99.90;;;;;;4903098;29;20116;-77
2022/05/29 11:28:11;;;;;;;9.40;1.77;;;14.90;99.90;;;;;;4903742;29;20062;-77
2022/05/29 11:31:01;;;;;;;5.00;1.60;;;14.80;99.90;;;;;;4909952;29;20048;-76
2022/05/29 11:33:38;;;;;;;6.97;1.75;;;14.60;99.90;;;;;;4902547;29;20075;-77
2022/05/29 11:36:16;;;;;;;3.90;1.02;;;14.50;99.90;;;;;;4910722;29;20443;-77
2022/05/29 11:39:06;;;;;;;6.72;1.38;;;14.50;99.90;;;;;;4910497;29;20055;-77
2022/05/29 11:41:47;;;;;;;4.13;1.23;;;14.40;99.90;;;;;;4902042;29;20052;-77
2022/05/29 11:44:28;;;;;;;5.40;1.30;;;14.40;99.90;;;;;;4902621;29;20367;-77
2022/05/29 11:53:35;;;;;;;7.18;1.60;;;14.30;99.90;;;;;;4902539;29;20090;-77
2022/05/29 11:56:05;;;;;;;2.65;1.08;;;14.30;99.90;;;;;;4893468;29;20056;-76
2022/05/29 11:58:42;;;;;;;4.07;1.30;;;14.40;99.90;;;;;;4902888;29;20051;-77
2022/05/29 12:01:14;;;;;;;4.28;1.00;;;14.50;99.90;;;;;;4914754;29;20549;-78
2022/05/29 12:03:53;;;;;;;4.32;1.25;;;14.60;99.90;;;;;;4918383;29;20567;-76
2022/05/29 12:06:33;;;;;;;2.75;0.98;;;14.70;99.90;;;;;;4908006;29;20063;-76
2022/05/29 12:09:11;;;;;;;5.70;1.10;;;14.80;99.90;;;;;;4904447;29;20425;-76
2022/05/29 12:11:37;;;;;;;4.15;1.08;;;14.80;99.90;;;;;;4918054;29;20055;-76
2022/05/29 12:14:10;;;;;;;4.38;0.95;;;14.90;99.90;;;;;;4909090;29;20060;-77
2022/05/29 12:16:40;;;;;;;5.72;1.02;;;15.10;99.90;;;;;;4909641;29;20048;-76
2022/05/29 12:19:16;;;;;;;5.45;1.00;;;15.20;99.90;;;;;;4903164;29;20044;-76
2022/05/29 12:22:00;;;;;;;3.33;0.93;;;15.30;99.90;;;;;;4916561;29;20079;-76
2022/05/29 12:24:31;;;;;;;3.42;0.85;;;15.40;99.90;;;;;;4919457;29;20044;-76
2022/05/29 12:27:19;;;;;;;3.47;1.00;;;15.60;99.90;;;;;;4917660;29;20044;-76
2022/05/29 12:29:53;;;;;;;4.55;1.33;;;15.70;99.90;;;;;;4918419;29;20107;-76
2022/05/29 12:32:24;;;;;;;3.47;1.08;;;15.90;99.90;;;;;;4908623;29;20091;-76
2022/05/29 12:35:13;;;;;;;6.35;0.90;;;16.10;99.90;;;;;;4918656;29;20056;-76
2022/05/29 12:37:44;;;;;;;3.00;0.98;;;16.30;99.90;;;;;;4910493;29;20051;-76
2022/05/29 12:40:29;;;;;;;5.15;1.33;;;16.40;99.90;;;;;;4919138;29;20064;-78
2022/05/29 12:43:37;;;;;;;4.18;0.98;;;16.50;99.90;;;;;;4910881;29;20048;-76
2022/05/29 12:46:08;;;;;;;4.90;1.10;;;16.60;99.90;;;;;;4903808;29;20104;-76
2022/05/29 12:48:53;;;;;;;7.45;1.20;;;16.70;99.90;;;;;;4916625;29;20495;-76
2022/05/29 12:51:47;;;;;;;4.82;1.20;;;16.80;99.90;;;;;;4908874;29;20112;-77
2022/05/29 12:54:41;;;;;;;4.53;1.08;;;16.80;99.90;;;;;;4909325;29;20053;-78
2022/05/29 12:57:35;;;;;;;3.88;1.10;;;16.80;99.90;;;;;;4908918;29;20048;-75
2022/05/29 13:00:13;;;;;;;3.40;1.08;;;16.80;99.90;;;;;;4905129;29;20052;-76
2022/05/29 13:02:53;;;;;;;5.03;1.20;;;16.70;99.90;;;;;;4918911;29;20048;-77
2022/05/29 13:05:33;;;;;;;5.03;1.02;;;16.60;99.90;;;;;;4918023;29;20697;-75
2022/05/29 13:08:18;;;;;;;6.15;1.30;;;16.70;99.90;;;;;;4896611;29;20053;-76
2022/05/29 13:10:47;;;;;;;4.97;1.20;;;16.90;99.90;;;;;;4910789;29;20060;-76
2022/05/29 13:13:19;;;;;;;3.78;1.00;;;17.00;99.90;;;;;;4920558;29;20148;-77
2022/05/29 13:15:47;;;;;;;5.60;1.33;;;17.10;99.90;;;;;;4905862;29;20067;-76
2022/05/29 13:18:28;;;;;;;3.05;0.93;;;17.40;99.90;;;;;;4913344;29;20044;-77
2022/05/29 13:21:16;;;;;;;6.35;1.27;;;17.40;99.90;;;;;;4905376;29;20062;-76
2022/05/29 13:23:48;;;;;;;4.13;1.15;;;17.50;99.90;;;;;;4912855;29;20501;-77
2022/05/29 13:26:41;;;;;;;6.15;1.40;;;17.50;99.90;;;;;;4907378;29;20052;-78
2022/05/29 13:29:12;;;;;;;5.93;1.42;;;18.00;99.90;;;;;;4903635;29;20065;-77
2022/05/29 13:32:12;;;;;;;4.75;1.58;;;18.00;99.90;;;;;;4910654;29;20052;-77
2022/05/29 13:34:38;;;;;;;4.65;1.30;;;17.90;99.90;;;;;;4922959;29;20056;-77
2022/05/29 13:37:06;;;;;;;4.80;1.40;;;17.60;99.90;;;;;;4922313;29;20469;-78
2022/05/29 13:39:35;;;;;;;6.07;1.23;;;17.50;99.90;;;;;;4897003;29;20052;-77
2022/05/29 13:42:10;;;;;;;6.82;1.27;;;17.40;99.90;;;;;;4889415;29;20048;-77
2022/05/29 13:44:41;;;;;;;4.68;1.40;;;17.60;99.90;;;;;;4920732;29;20623;-77
2022/05/29 13:47:20;;;;;;;4.68;1.40;;;18.10;99.90;;;;;;4919998;29;20135;-77
2022/05/29 13:49:56;;;;;;;4.65;1.50;;;18.30;99.90;;;;;;4920260;29;20079;-77